createdAt,value
2017-06-13T00:02:07.405Z,3.50
2017-06-13T00:04:33.968Z,2.00
2017-06-13T00:07:00.192Z,3.30
2017-06-13T00:09:41.296Z,3.40
2017-06-13T00:12:07.495Z,2.90
2017-06-13T00:14:33.685Z,3.10
2017-06-13T00:16:59.927Z,2.57
2017-06-13T00:19:26.862Z,2.67
2017-06-13T00:21:53.786Z,2.70
2017-06-13T00:24:19.973Z,2.30
2017-06-13T00:26:46.149Z,2.63
2017-06-13T00:29:12.295Z,2.00
2017-06-13T00:31:39.233Z,2.50
2017-06-13T00:34:05.452Z,2.30
2017-06-13T00:36:31.639Z,2.43
2017-06-13T00:38:57.872Z,2.30
2017-06-13T00:41:24.269Z,2.37
2017-06-13T00:43:51.271Z,2.67
2017-06-13T00:46:17.840Z,2.40
2017-06-13T00:48:44.765Z,2.80
2017-06-13T00:51:11.035Z,2.63
2017-06-13T00:53:37.227Z,2.20
2017-06-13T00:56:03.402Z,2.50
2017-06-13T00:58:29.606Z,2.30
2017-06-13T01:00:56.564Z,2.70
2017-06-13T01:03:22.735Z,3.00
2017-06-13T01:05:48.964Z,2.07
2017-06-13T01:08:15.114Z,2.50
2017-06-13T01:10:41.275Z,2.10
2017-06-13T01:13:07.449Z,1.87
2017-06-13T01:15:33.611Z,2.33
2017-06-13T01:18:00.568Z,2.43
2017-06-13T01:20:27.471Z,2.37
2017-06-13T01:22:53.626Z,2.77
2017-06-13T01:25:19.868Z,2.30
2017-06-13T01:27:46.798Z,2.27
2017-06-13T01:30:13.004Z,2.00
2017-06-13T01:32:39.192Z,2.60
2017-06-13T01:35:05.382Z,2.73
2017-06-13T01:37:31.612Z,2.40
2017-06-13T01:39:57.773Z,2.60
2017-06-13T01:42:23.977Z,1.90
2017-06-13T01:44:50.899Z,2.63
2017-06-13T01:47:17.061Z,2.17
2017-06-13T01:49:43.308Z,2.37
2017-06-13T01:52:09.529Z,2.53
2017-06-13T01:54:35.759Z,2.70
2017-06-13T01:57:01.946Z,2.03
2017-06-13T01:59:28.111Z,2.27
2017-06-13T02:01:54.276Z,2.40
2017-06-13T02:04:20.475Z,2.03
2017-06-13T02:06:46.635Z,2.30
2017-06-13T02:09:12.837Z,2.30
2017-06-13T02:11:39.027Z,2.20
2017-06-13T02:14:05.971Z,2.40
2017-06-13T02:16:32.139Z,3.03
2017-06-13T02:18:58.297Z,2.53
2017-06-13T02:21:24.528Z,1.80
2017-06-13T02:23:50.712Z,2.40
2017-06-13T02:26:16.899Z,2.60
2017-06-13T02:28:43.057Z,2.10
2017-06-13T02:31:09.958Z,2.00
2017-06-13T02:33:36.179Z,2.73
2017-06-13T02:36:02.357Z,3.00
2017-06-13T02:38:29.260Z,2.40
2017-06-13T02:40:55.546Z,2.13
2017-06-13T02:43:21.727Z,2.23
2017-06-13T02:45:47.972Z,2.00
2017-06-13T02:48:14.122Z,2.60
2017-06-13T02:50:40.324Z,2.63
2017-06-13T02:53:06.533Z,2.60
2017-06-13T02:55:32.697Z,2.53
2017-06-13T02:57:59.646Z,2.60
2017-06-13T03:00:26.586Z,2.60
2017-06-13T03:02:53.522Z,2.10
2017-06-13T03:05:19.712Z,3.13
2017-06-13T03:07:45.871Z,3.70
2017-06-13T03:10:12.058Z,2.70
2017-06-13T03:12:38.224Z,2.83
2017-06-13T03:15:04.405Z,2.53
2017-06-13T03:17:30.582Z,2.17
2017-06-13T03:19:56.808Z,2.40
2017-06-13T03:22:22.985Z,5.47
2017-06-13T03:24:49.139Z,3.70
2017-06-13T03:27:30.186Z,2.70
2017-06-13T03:29:56.364Z,2.80
2017-06-13T03:32:22.553Z,4.27
2017-06-13T03:34:48.776Z,2.83
2017-06-13T03:37:14.982Z,2.70
2017-06-13T03:39:41.968Z,2.57
2017-06-13T03:42:08.167Z,2.73
2017-06-13T03:44:34.342Z,2.17
2017-06-13T03:47:00.487Z,2.63
2017-06-13T03:49:26.674Z,2.80
2017-06-13T03:51:52.850Z,2.43
2017-06-13T03:54:19.748Z,2.00
2017-06-13T03:56:45.966Z,3.10
2017-06-13T03:59:12.157Z,3.10
2017-06-13T04:01:39.110Z,2.10
2017-06-13T04:04:06.009Z,2.70
2017-06-13T04:06:32.183Z,2.60
2017-06-13T04:08:59.139Z,2.97
2017-06-13T04:11:25.331Z,2.73
2017-06-13T04:13:51.490Z,3.00
2017-06-13T04:16:18.438Z,3.03
2017-06-13T04:18:45.631Z,2.73
2017-06-13T04:21:11.799Z,3.20
2017-06-13T04:23:38.786Z,2.70
2017-06-13T04:26:05.056Z,3.20
2017-06-13T04:28:31.203Z,3.40
2017-06-13T04:30:58.127Z,3.47
2017-06-13T04:33:24.309Z,2.87
2017-06-13T04:35:50.478Z,2.77
2017-06-13T04:38:16.698Z,2.50
2017-06-13T04:40:42.905Z,2.23
2017-06-13T04:43:09.087Z,3.03
2017-06-13T04:45:36.009Z,2.90
2017-06-13T04:48:02.171Z,3.03
2017-06-13T04:50:29.111Z,2.90
2017-06-13T04:52:56.047Z,2.90
2017-06-13T04:55:22.219Z,2.93
2017-06-13T04:57:48.430Z,2.83
2017-06-13T05:00:14.657Z,2.50
2017-06-13T05:02:40.854Z,3.17
2017-06-13T05:05:07.030Z,2.47
2017-06-13T05:07:33.307Z,2.70
2017-06-13T05:09:59.491Z,2.50
2017-06-13T05:12:25.757Z,3.23
2017-06-13T05:14:52.082Z,2.40
2017-06-13T05:17:18.327Z,2.90
2017-06-13T05:19:44.570Z,3.50
2017-06-13T05:22:11.470Z,2.57
2017-06-13T05:24:37.794Z,2.70
2017-06-13T05:27:04.020Z,3.23
2017-06-13T05:29:30.537Z,3.57
2017-06-13T05:31:57.058Z,2.53
2017-06-13T05:34:24.867Z,3.83
2017-06-13T05:36:51.196Z,3.00
2017-06-13T05:39:17.443Z,2.90
2017-06-13T05:41:43.617Z,3.00
2017-06-13T05:44:10.546Z,2.57
2017-06-13T05:46:37.159Z,2.80
2017-06-13T05:49:03.390Z,2.53
2017-06-13T05:51:29.576Z,3.00
2017-06-13T05:53:55.798Z,2.50
2017-06-13T05:56:22.126Z,2.77
2017-06-13T05:58:48.323Z,2.63
2017-06-13T06:01:14.517Z,3.23
2017-06-13T06:03:40.699Z,2.63
2017-06-13T06:06:07.592Z,2.73
2017-06-13T06:08:33.754Z,3.07
2017-06-13T06:10:59.964Z,2.73
2017-06-13T06:13:26.134Z,2.60
2017-06-13T06:15:52.331Z,2.47
2017-06-13T06:18:18.547Z,2.97
2017-06-13T06:20:44.699Z,2.27
2017-06-13T06:23:11.048Z,2.47
2017-06-13T06:25:52.140Z,2.63
2017-06-13T06:28:18.329Z,3.00
2017-06-13T06:30:44.678Z,2.90
2017-06-13T06:33:10.892Z,3.30
2017-06-13T06:35:37.075Z,2.70
2017-06-13T06:38:03.269Z,2.30
2017-06-13T06:40:30.193Z,3.17
2017-06-13T06:42:56.407Z,2.70
2017-06-13T06:45:22.626Z,2.97
2017-06-13T06:47:48.826Z,3.40
2017-06-13T06:50:15.008Z,3.07
2017-06-13T06:52:41.199Z,2.80
2017-06-13T06:55:07.371Z,2.60
2017-06-13T06:57:34.362Z,3.00
2017-06-13T07:00:00.526Z,2.90
2017-06-13T07:02:26.685Z,3.53
2017-06-13T07:04:53.597Z,2.37
2017-06-13T07:07:19.778Z,3.70
2017-06-13T07:09:46.022Z,2.97
2017-06-13T07:12:12.201Z,2.63
2017-06-13T07:14:38.431Z,3.70
2017-06-13T07:17:05.329Z,2.70
2017-06-13T07:19:31.508Z,3.47
2017-06-13T07:21:58.459Z,2.87
2017-06-13T07:24:25.409Z,3.10
2017-06-13T07:26:52.335Z,3.10
2017-06-13T07:29:18.508Z,2.73
2017-06-13T07:31:44.663Z,3.10
2017-06-13T07:34:11.000Z,3.60
2017-06-13T07:36:37.150Z,3.27
2017-06-13T07:39:04.099Z,3.83
2017-06-13T07:41:30.247Z,2.93
2017-06-13T07:43:56.452Z,3.53
2017-06-13T07:46:22.668Z,3.50
2017-06-13T07:48:48.871Z,3.97
2017-06-13T07:51:15.040Z,4.23
2017-06-13T07:53:42.019Z,2.90
2017-06-13T07:56:08.237Z,3.43
2017-06-13T07:58:34.402Z,2.90
2017-06-13T08:01:00.598Z,4.37
2017-06-13T08:03:26.763Z,3.60
2017-06-13T08:05:52.934Z,3.80
2017-06-13T08:08:19.880Z,3.40
2017-06-13T08:10:46.809Z,3.17
2017-06-13T08:13:12.990Z,3.40
2017-06-13T08:15:39.207Z,3.53
2017-06-13T08:18:05.420Z,3.80
2017-06-13T08:20:31.680Z,2.83
2017-06-13T08:22:57.867Z,3.30
2017-06-13T08:25:24.771Z,3.17
2017-06-13T08:27:50.923Z,3.00
2017-06-13T08:30:17.103Z,3.90
2017-06-13T08:32:43.331Z,3.27
2017-06-13T08:35:09.486Z,3.37
2017-06-13T08:37:35.647Z,4.10
2017-06-13T08:40:02.628Z,3.00
2017-06-13T08:42:28.796Z,4.37
2017-06-13T08:44:55.007Z,3.83
2017-06-13T08:47:36.166Z,3.80
2017-06-13T08:50:02.362Z,3.23
2017-06-13T08:52:29.305Z,3.57
2017-06-13T08:54:56.227Z,2.90
2017-06-13T08:57:22.386Z,3.80
2017-06-13T08:59:49.310Z,4.03
2017-06-13T09:02:15.503Z,3.80
2017-06-13T09:04:41.695Z,3.17
2017-06-13T09:07:07.863Z,3.67
2017-06-13T09:09:34.039Z,3.57
2017-06-13T09:12:00.958Z,3.30
2017-06-13T09:14:27.106Z,2.87
2017-06-13T09:16:54.034Z,3.03
2017-06-13T09:19:20.224Z,3.40
2017-06-13T09:21:46.359Z,3.40
2017-06-13T09:24:12.527Z,3.53
2017-06-13T09:26:38.698Z,3.20
2017-06-13T09:29:04.931Z,3.30
2017-06-13T09:31:31.096Z,3.63
2017-06-13T09:33:57.335Z,3.93
2017-06-13T09:36:23.515Z,3.10
2017-06-13T09:38:49.697Z,4.10
2017-06-13T09:41:16.286Z,4.10
2017-06-13T09:43:42.454Z,3.10
2017-06-13T09:46:08.599Z,3.93
2017-06-13T09:48:35.538Z,3.47
2017-06-13T09:51:02.477Z,3.30
2017-06-13T09:53:28.671Z,4.00
2017-06-13T09:55:54.888Z,3.77
2017-06-13T09:58:21.138Z,3.13
2017-06-13T10:00:47.307Z,3.60
2017-06-13T10:03:14.248Z,2.93
2017-06-13T10:05:41.187Z,3.63
2017-06-13T10:08:07.379Z,3.93
2017-06-13T10:10:33.566Z,3.97
2017-06-13T10:13:00.096Z,3.50
2017-06-13T10:15:27.037Z,3.40
2017-06-13T10:17:53.968Z,3.70
2017-06-13T10:20:20.192Z,3.47
2017-06-13T10:22:46.400Z,3.67
2017-06-13T10:25:12.587Z,4.53
2017-06-13T10:27:38.792Z,3.40
2017-06-13T10:30:05.815Z,6.87
2017-06-13T10:32:31.978Z,4.07
2017-06-13T10:34:58.171Z,3.00
2017-06-13T10:37:24.360Z,3.03
2017-06-13T10:39:50.905Z,4.57
2017-06-13T10:42:17.213Z,3.43
2017-06-13T10:44:43.374Z,3.57
2017-06-13T10:47:09.550Z,2.90
2017-06-13T10:49:36.528Z,2.70
2017-06-13T10:52:02.698Z,2.53
2017-06-13T10:54:28.875Z,3.10
2017-06-13T10:56:55.065Z,3.57
2017-06-13T10:59:21.254Z,3.47
2017-06-13T11:01:47.458Z,2.93
2017-06-13T11:04:13.675Z,2.90
2017-06-13T11:06:39.894Z,3.07
2017-06-13T11:09:06.815Z,3.20
2017-06-13T11:11:33.001Z,3.37
2017-06-13T11:13:59.142Z,2.93
2017-06-13T11:16:25.371Z,3.30
2017-06-13T11:18:51.574Z,3.03
2017-06-13T11:21:17.778Z,3.60
2017-06-13T11:23:44.707Z,2.57
2017-06-13T11:26:10.908Z,2.80
2017-06-13T11:28:37.051Z,2.73
2017-06-13T11:31:03.253Z,2.93
2017-06-13T11:33:29.511Z,2.83
2017-06-13T11:35:55.646Z,4.13
2017-06-13T11:38:21.839Z,3.40
2017-06-13T11:40:48.018Z,2.87
2017-06-13T11:43:14.912Z,2.90
2017-06-13T11:45:41.097Z,3.30
2017-06-13T11:48:07.302Z,2.90
2017-06-13T11:50:33.472Z,3.73
2017-06-13T11:52:59.689Z,2.87
2017-06-13T11:55:25.883Z,3.10
2017-06-13T11:57:52.071Z,2.60
2017-06-13T12:00:18.287Z,2.70
2017-06-13T12:02:44.447Z,3.00
2017-06-13T12:05:10.654Z,3.20
2017-06-13T12:07:36.834Z,3.17
2017-06-13T12:10:03.076Z,3.03
2017-06-13T12:12:30.064Z,3.20
2017-06-13T12:14:56.246Z,3.03
2017-06-13T12:17:23.227Z,2.83
2017-06-13T12:19:49.392Z,2.57
2017-06-13T12:22:15.568Z,3.20
2017-06-13T12:24:41.810Z,2.40
2017-06-13T12:27:08.205Z,2.57
2017-06-13T12:29:34.479Z,2.60
2017-06-13T12:32:00.680Z,2.80
2017-06-13T12:34:26.905Z,3.30
2017-06-13T12:36:53.143Z,3.07
2017-06-13T12:39:19.458Z,2.80
2017-06-13T12:41:46.634Z,3.10
2017-06-13T12:44:12.931Z,2.60
2017-06-13T12:46:39.854Z,2.87
2017-06-13T12:49:06.043Z,3.67
2017-06-13T12:51:33.407Z,3.17
2017-06-13T12:54:00.181Z,3.77
2017-06-13T12:56:26.430Z,3.50
2017-06-13T12:58:53.380Z,3.40
2017-06-13T13:01:19.812Z,2.87
2017-06-13T13:03:46.992Z,3.50
2017-06-13T13:06:13.256Z,3.10
2017-06-13T13:08:39.426Z,2.90
2017-06-13T13:11:06.335Z,2.50
2017-06-13T13:13:32.557Z,2.70
2017-06-13T13:15:58.731Z,3.57
2017-06-13T13:18:25.683Z,2.43
2017-06-13T13:20:52.629Z,2.50
2017-06-13T13:23:19.535Z,3.20
2017-06-13T13:25:45.748Z,2.70
2017-06-13T13:28:11.940Z,2.47
2017-06-13T13:30:38.123Z,3.40
2017-06-13T13:33:04.392Z,2.70
2017-06-13T13:35:38.017Z,2.47
2017-06-13T13:38:04.243Z,3.07
2017-06-13T13:40:30.424Z,2.77
2017-06-13T13:42:56.626Z,2.73
2017-06-13T13:45:22.806Z,2.83
2017-06-13T13:47:49.777Z,3.43
2017-06-13T13:50:15.961Z,3.27
2017-06-13T13:52:42.117Z,3.40
2017-06-13T13:55:08.311Z,2.93
2017-06-13T13:57:34.503Z,3.20
2017-06-13T14:00:00.703Z,2.70
2017-06-13T14:02:26.898Z,2.93
2017-06-13T14:04:53.131Z,3.13
2017-06-13T14:07:19.319Z,3.23
2017-06-13T14:09:45.495Z,3.33
2017-06-13T14:12:12.420Z,3.33
2017-06-13T14:14:38.628Z,4.07
2017-06-13T14:17:04.798Z,2.83
2017-06-13T14:19:31.721Z,3.17
2017-06-13T14:21:57.909Z,4.40
2017-06-13T14:24:24.218Z,3.40
2017-06-13T14:26:51.159Z,4.80
2017-06-13T14:29:18.918Z,3.90
2017-06-13T14:31:45.851Z,3.20
2017-06-13T14:34:12.597Z,3.40
2017-06-13T14:36:39.535Z,3.20
2017-06-13T14:39:05.717Z,3.40
2017-06-13T14:41:31.879Z,3.23
2017-06-13T14:43:58.115Z,3.30
2017-06-13T14:46:24.328Z,2.90
2017-06-13T14:48:50.469Z,3.13
2017-06-13T14:51:16.655Z,3.57
2017-06-13T14:53:42.822Z,3.33
2017-06-13T14:56:09.041Z,2.83
2017-06-13T14:58:35.215Z,3.27
2017-06-13T15:01:01.455Z,3.20
2017-06-13T15:03:27.663Z,3.03
2017-06-13T15:05:54.587Z,3.30
2017-06-13T15:08:20.766Z,3.60
2017-06-13T15:10:46.974Z,3.20
2017-06-13T15:13:13.148Z,3.90
2017-06-13T15:15:39.336Z,4.03
2017-06-13T15:18:05.507Z,3.70
2017-06-13T15:20:31.676Z,3.50
2017-06-13T15:22:58.607Z,3.20
2017-06-13T15:25:39.721Z,3.13
2017-06-13T15:28:05.879Z,2.97
2017-06-13T15:30:32.091Z,3.17
2017-06-13T15:32:58.286Z,3.33
2017-06-13T15:35:25.249Z,3.30
2017-06-13T15:37:51.439Z,3.37
2017-06-13T15:40:17.746Z,3.50
2017-06-13T15:42:43.982Z,17.13
2017-06-13T15:45:10.154Z,23.50
2017-06-13T15:47:36.345Z,22.57
2017-06-13T15:50:02.747Z,62.63
2017-06-13T15:52:29.002Z,37.80
2017-06-13T15:54:55.232Z,27.40
2017-06-13T15:57:21.634Z,5.70
2017-06-13T15:59:47.833Z,9.70
2017-06-13T16:02:14.727Z,9.20
2017-06-13T16:04:40.924Z,6.63
2017-06-13T16:07:07.135Z,3.10
2017-06-13T16:09:33.309Z,4.13
2017-06-13T16:11:59.512Z,4.43
2017-06-13T16:14:25.694Z,4.23
2017-06-13T16:16:51.947Z,3.53
2017-06-13T16:19:18.135Z,3.90
2017-06-13T16:21:44.306Z,3.97
2017-06-13T16:24:10.492Z,3.60
2017-06-13T16:26:36.684Z,3.33
2017-06-13T16:29:02.911Z,3.50
2017-06-13T16:31:29.084Z,4.90
2017-06-13T16:33:55.330Z,3.57
2017-06-13T16:36:22.360Z,4.30
2017-06-13T16:38:48.638Z,3.47
2017-06-13T16:41:17.306Z,3.77
2017-06-13T16:43:43.562Z,3.90
2017-06-13T16:46:10.009Z,3.10
2017-06-13T16:48:38.062Z,3.20
2017-06-13T16:51:04.360Z,3.50
2017-06-13T16:53:31.288Z,2.83
2017-06-13T16:55:57.474Z,2.90
2017-06-13T16:58:23.803Z,3.13
2017-06-13T17:00:50.130Z,3.50
2017-06-13T17:03:16.312Z,3.30
2017-06-13T17:05:42.583Z,3.53
2017-06-13T17:08:08.815Z,3.47
2017-06-13T17:10:35.018Z,3.43
2017-06-13T17:13:02.000Z,3.17
2017-06-13T17:15:28.219Z,3.40
2017-06-13T17:17:54.415Z,3.40
2017-06-13T17:20:21.407Z,3.30
2017-06-13T17:22:47.634Z,2.60
2017-06-13T17:25:13.820Z,3.07
2017-06-13T17:27:40.786Z,2.93
2017-06-13T17:30:21.932Z,3.70
2017-06-13T17:32:48.200Z,3.93
2017-06-13T17:35:14.407Z,3.10
2017-06-13T17:37:41.351Z,3.10
2017-06-13T17:40:08.354Z,3.43
2017-06-13T17:42:34.573Z,3.50
2017-06-13T17:45:00.782Z,2.60
2017-06-13T17:47:27.002Z,2.93
2017-06-13T17:50:08.184Z,4.07
2017-06-13T17:52:34.412Z,5.50
2017-06-13T17:55:00.587Z,4.80
2017-06-13T17:57:26.734Z,3.17
2017-06-13T17:59:52.978Z,3.50
2017-06-13T18:02:19.923Z,3.03
2017-06-13T18:04:46.858Z,3.07
2017-06-13T18:07:13.055Z,3.27
2017-06-13T18:09:40.094Z,3.00
2017-06-13T18:12:06.325Z,3.27
2017-06-13T18:14:33.350Z,3.13
2017-06-13T18:16:59.578Z,4.47
2017-06-13T18:19:25.789Z,3.77
2017-06-13T18:21:52.762Z,3.57
2017-06-13T18:24:18.955Z,3.77
2017-06-13T18:26:45.932Z,3.60
2017-06-13T18:29:13.419Z,4.27
2017-06-13T18:31:39.588Z,3.60
2017-06-13T18:34:06.526Z,3.57
2017-06-13T18:36:33.433Z,4.30
2017-06-13T18:38:59.603Z,4.67
2017-06-13T18:41:26.587Z,4.70
2017-06-13T18:43:52.763Z,5.00
2017-06-13T18:46:18.959Z,5.20
2017-06-13T18:48:45.121Z,3.97
2017-06-13T18:51:11.340Z,3.70
2017-06-13T18:53:37.550Z,3.80
2017-06-13T18:56:03.861Z,3.90
2017-06-13T18:58:30.225Z,4.77
2017-06-13T19:00:57.961Z,4.50
2017-06-13T19:03:25.898Z,5.10
2017-06-13T19:05:52.188Z,4.73
2017-06-13T19:08:19.556Z,4.40
2017-06-13T19:10:46.899Z,5.40
2017-06-13T19:13:13.117Z,4.63
2017-06-13T19:15:39.560Z,4.50
2017-06-13T19:18:20.679Z,5.00
2017-06-13T19:20:48.476Z,4.73
2017-06-13T19:23:14.779Z,5.37
2017-06-13T19:25:41.178Z,5.43
2017-06-13T19:28:08.312Z,5.37
2017-06-13T19:30:34.701Z,6.10
2017-06-13T19:33:00.919Z,6.90
2017-06-13T19:35:28.104Z,5.37
2017-06-13T19:37:54.651Z,6.10
2017-06-13T19:40:20.918Z,5.03
2017-06-13T19:42:47.142Z,4.90
2017-06-13T19:45:14.935Z,5.63
2017-06-13T19:47:42.292Z,6.17
2017-06-13T19:50:11.513Z,8.93
2017-06-13T19:52:37.792Z,9.27
2017-06-13T19:55:04.040Z,6.07
2017-06-13T19:57:31.440Z,5.80
2017-06-13T19:59:57.736Z,5.93
2017-06-13T20:02:24.784Z,5.73
2017-06-13T20:04:51.748Z,5.40
2017-06-13T20:07:19.588Z,5.33
2017-06-13T20:09:45.939Z,5.00
2017-06-13T20:12:12.465Z,4.83
2017-06-13T20:14:39.577Z,5.10
2017-06-13T20:17:05.890Z,5.40
2017-06-13T20:19:32.103Z,5.17
2017-06-13T20:21:58.386Z,5.33
2017-06-13T20:24:34.636Z,5.60
2017-06-13T20:27:07.630Z,5.47
2017-06-13T20:29:33.876Z,4.70
2017-06-13T20:32:01.871Z,5.07
2017-06-13T20:34:28.961Z,5.60
2017-06-13T20:36:55.352Z,5.67
2017-06-13T20:39:21.559Z,5.13
2017-06-13T20:41:48.581Z,4.77
2017-06-13T20:44:14.756Z,4.97
2017-06-13T20:46:40.968Z,5.10
2017-06-13T20:49:07.975Z,5.20
2017-06-13T20:51:34.146Z,4.07
2017-06-13T20:54:01.230Z,4.67
2017-06-13T20:56:27.763Z,4.67
2017-06-13T20:58:53.979Z,4.40
2017-06-13T21:01:20.851Z,6.53
2017-06-13T21:03:47.145Z,5.47
2017-06-13T21:06:14.116Z,6.93
2017-06-13T21:08:40.354Z,6.30
2017-06-13T21:11:06.541Z,6.83
2017-06-13T21:13:32.702Z,5.40
2017-06-13T21:15:58.943Z,5.80
2017-06-13T21:18:25.164Z,5.00
2017-06-13T21:20:51.412Z,4.93
2017-06-13T21:23:17.617Z,5.57
2017-06-13T21:25:43.792Z,5.20
2017-06-13T21:28:10.683Z,5.40
2017-06-13T21:30:36.862Z,5.60
2017-06-13T21:33:03.024Z,5.07
2017-06-13T21:35:29.473Z,5.60
2017-06-13T21:37:55.657Z,5.03
2017-06-13T21:40:22.693Z,5.63
2017-06-13T21:42:48.919Z,4.60
2017-06-13T21:45:15.122Z,4.40
2017-06-13T21:47:41.347Z,4.50
2017-06-13T21:50:07.577Z,4.17
2017-06-13T21:52:33.803Z,5.03
2017-06-13T21:54:59.967Z,4.40
2017-06-13T21:57:26.147Z,5.07
2017-06-13T21:59:53.283Z,5.67
2017-06-13T22:02:19.551Z,5.13
2017-06-13T22:04:45.742Z,5.40
2017-06-13T22:07:11.973Z,4.40
2017-06-13T22:09:38.206Z,4.60
2017-06-13T22:12:04.547Z,4.40
2017-06-13T22:14:30.724Z,6.13
2017-06-13T22:16:56.900Z,4.33
2017-06-13T22:19:23.043Z,4.43
2017-06-13T22:21:49.247Z,4.40
2017-06-13T22:24:15.430Z,4.83
2017-06-13T22:26:41.583Z,4.53
2017-06-13T22:29:08.515Z,4.93
2017-06-13T22:31:35.422Z,4.90
2017-06-13T22:34:01.602Z,4.90
2017-06-13T22:36:28.586Z,5.53
2017-06-13T22:38:54.782Z,5.10
2017-06-13T22:41:21.300Z,5.60
2017-06-13T22:43:48.252Z,5.07
2017-06-13T22:46:15.202Z,4.50
2017-06-13T22:48:42.173Z,4.90
2017-06-13T22:51:08.324Z,4.80
2017-06-13T22:53:34.491Z,4.87
2017-06-13T22:56:01.470Z,5.50
2017-06-13T22:58:27.655Z,4.63
2017-06-13T23:00:53.836Z,6.87
2017-06-13T23:03:20.006Z,6.47
2017-06-13T23:05:46.144Z,4.73
2017-06-13T23:08:12.377Z,6.27
2017-06-13T23:10:39.338Z,5.50
2017-06-13T23:13:06.231Z,5.50
2017-06-13T23:15:32.407Z,5.70
2017-06-13T23:17:59.363Z,5.97
2017-06-13T23:20:40.586Z,5.63
2017-06-13T23:23:06.780Z,6.90
2017-06-13T23:25:32.936Z,6.20
2017-06-13T23:27:59.120Z,5.50
2017-06-13T23:30:25.720Z,5.73
2017-06-13T23:32:51.952Z,4.60
2017-06-13T23:35:18.119Z,5.87
2017-06-13T23:37:44.314Z,5.67
2017-06-13T23:40:10.559Z,5.53
2017-06-13T23:42:37.528Z,4.60
2017-06-13T23:45:03.695Z,5.10
2017-06-13T23:47:29.884Z,5.20
2017-06-13T23:49:56.082Z,4.83
2017-06-13T23:52:22.265Z,5.30
2017-06-13T23:54:48.477Z,5.10
2017-06-13T23:57:14.683Z,4.80
2017-06-13T23:59:41.590Z,4.70
